Terminal Aerodrome Forecast
Issued by NWS

Current Version | Previous Version | Graphics & Text | Print | Product List | Glossary On
Versions: 1 2 3 4 5 6 7 8 9 10 11 12 13 14 15 16
000
FTUS41 KPBZ 180427 AAB
TAFHLG
TAF AMD
KHLG 180427Z 1804/1824 21009KT 3SM -SHRA BR OVC035
     FM180700 21007KT 6SM BR VCSH BKN025
     FM181000 19005KT 5SM BR VCSH BKN015
     FM181500 23007KT P6SM BKN025
     FM181700 24009KT P6SM BKN040=

USA.gov is the U.S. government's official web portal to all federal, state and local government web resources and services.